DABT

Batna Airport

Batna, Algeria
METAR DABT 140100Z 23018KT 8000 -RA FEW020 BKN026 08/04 Q1009
Observed Flight Rules
Dec-14 @ 01:00 UTC (54 minutes ago) Marginal Visual Flight Rules
Wind Visibility Clouds Conditions
230° at 18 knots 7,998 meters
  • Few at 2,000' AGL
  • Broken at 2,600' AGL
  • Light Rain
Temperatures Readings
Current 8°C / 46°F
Dewpoint 4°C / 39°F
Humidity 76%
Altimeter 29.79" Hg
Pressure 1009 hPa
Elevation 823
METAR DABT 140100Z 23018KT 8000 -RA FEW020 BKN026 08/04 Q1009
Observed Flight Rules
Dec-14 @ 01:00 UTC
(54 minutes ago)
MVFR
Wind Visibility
230° at 18 knots 7,998 meters
Clouds
  • Few at 2,000' AGL
  • Broken at 2,600' AGL
Conditions
  • Light Rain
Temperature Dewpoint
8°C / 46°F 4°C / 39°F
Humidity Altimeter Pressure
76% 29.79" Hg 1009 hPa